Time;durP1;ratioP1;P1;durP2;ratioP2;P2;SDS_P1;SDS_P2;PMS_P1;PMS_P2;Temp;Humidity;BMP_temperature;BMP_pressure;BME280_temperature;BME280_humidity;BME280_pressure;Samples;Min_cycle;Max_cycle;Signal;HPM_P1;HPM_P2
2021/12/15 00:01:14;;;;;;;34.13;26.13;;;7.40;1.00;9.20;101890.00;;;;5056992;28;20522;-74
2021/12/15 00:03:45;;;;;;;34.93;27.30;;;7.40;1.00;9.20;101874.00;;;;5048921;28;20455;-78
2021/12/15 00:06:18;;;;;;;34.13;27.43;;;7.40;1.00;9.20;101893.00;;;;5067393;28;20443;-73
2021/12/15 00:08:51;;;;;;;35.53;28.17;;;7.40;1.00;9.20;101894.00;;;;5062220;28;20440;-77
2021/12/15 00:11:21;;;;;;;35.63;25.93;;;7.60;1.00;9.30;101895.00;;;;5054787;28;20558;-74
2021/12/15 00:13:52;;;;;;;34.37;28.10;;;7.50;1.00;9.30;101829.00;;;;5061319;28;21027;-75
2021/12/15 01:30:39;;;;;;;37.90;30.20;;;7.50;1.00;9.10;101920.00;;;;4976568;28;20466;-75
2021/12/15 01:33:09;;;;;;;34.83;28.13;;;7.50;1.00;9.10;101928.00;;;;5002489;28;20441;-75
2021/12/15 01:35:44;;;;;;;37.10;30.53;;;7.50;1.00;9.10;101863.00;;;;5003510;28;20482;-75
2021/12/15 01:38:13;;;;;;;38.33;30.37;;;7.50;1.00;9.10;101922.00;;;;4976939;28;20447;-75
2021/12/15 01:40:44;;;;;;;40.50;30.77;;;7.50;1.00;9.10;101922.00;;;;4977886;28;20836;-75
2021/12/15 01:43:18;;;;;;;37.47;29.90;;;7.50;1.00;9.10;101923.00;;;;4994186;28;20520;-75
2021/12/15 01:48:40;;;;;;;39.80;31.27;;;7.50;1.00;9.00;101915.00;;;;4975887;28;20442;-75
2021/12/15 01:51:13;;;;;;;45.33;33.67;;;7.50;1.00;9.00;101914.00;;;;4989523;28;20450;-75
2021/12/15 01:53:41;;;;;;;36.17;25.90;;;7.50;1.00;9.00;101918.00;;;;4992287;28;20447;-76
2021/12/15 01:56:09;;;;;;;44.90;33.27;;;7.50;1.00;9.00;101923.00;;;;4992875;28;20481;-76
2021/12/15 01:58:37;;;;;;;41.40;32.63;;;7.50;1.00;9.10;101932.00;;;;4977395;28;20465;-76
2021/12/15 02:01:10;;;;;;;43.83;34.37;;;7.50;1.00;9.10;101921.00;;;;4977749;28;20450;-76
2021/12/15 02:03:41;;;;;;;41.40;30.17;;;7.50;1.00;9.10;101917.00;;;;4976933;28;20867;-76
2021/12/15 02:06:30;;;;;;;43.60;33.27;;;7.50;1.00;9.20;101929.00;;;;4979943;28;20467;-76
2021/12/15 02:08:58;;;;;;;47.00;32.50;;;7.50;1.00;9.10;101904.00;;;;5000254;28;20461;-75
2021/12/15 02:11:27;;;;;;;41.60;34.10;;;7.50;1.00;9.10;101925.00;;;;5003357;28;20443;-76
2021/12/15 02:13:55;;;;;;;43.80;33.03;;;7.50;1.00;9.10;101921.00;;;;5003698;28;20479;-76
2021/12/15 02:16:25;;;;;;;44.20;30.90;;;7.50;1.00;9.10;101908.00;;;;4996700;28;20550;-75
2021/12/15 02:18:53;;;;;;;46.27;33.53;;;7.50;1.00;9.10;101923.00;;;;4966705;28;20446;-76
2021/12/15 02:21:25;;;;;;;47.60;34.50;;;7.50;1.00;9.10;101887.00;;;;4973305;28;21033;-74
2021/12/15 02:23:58;;;;;;;46.10;33.50;;;7.50;1.00;9.20;101927.00;;;;4998208;28;20448;-76
2021/12/15 02:26:31;;;;;;;44.87;32.80;;;7.50;1.00;9.10;101933.00;;;;5013426;28;20471;-75
2021/12/15 02:29:01;;;;;;;45.57;32.60;;;7.50;1.00;9.10;101925.00;;;;5018550;28;20455;-76
2021/12/15 02:31:40;;;;;;;45.00;34.00;;;7.50;1.00;9.20;101944.00;;;;4999533;28;20447;-75
2021/12/15 02:34:31;;;;;;;46.63;33.93;;;7.50;1.00;9.10;101937.00;;;;4975471;28;20473;-77
2021/12/15 02:37:16;;;;;;;46.27;34.10;;;7.50;1.00;9.10;101928.00;;;;4990403;28;20460;-76
2021/12/15 02:39:49;;;;;;;45.00;33.63;;;7.50;1.00;9.20;101939.00;;;;4974076;28;20453;-75
2021/12/15 02:42:21;;;;;;;38.27;30.47;;;7.50;1.00;9.20;101932.00;;;;4975712;28;20513;-76
2021/12/15 02:44:50;;;;;;;46.10;33.67;;;7.60;1.00;9.30;101931.00;;;;4992416;28;20481;-75
2021/12/15 02:47:24;;;;;;;42.50;32.20;;;7.60;1.00;9.20;101933.00;;;;4991210;28;20458;-75
2021/12/15 02:49:57;;;;;;;45.27;32.90;;;7.60;1.00;9.20;101934.00;;;;4991499;28;20477;-75
2021/12/15 02:52:28;;;;;;;43.00;32.53;;;7.60;1.00;9.20;101900.00;;;;4988298;28;20459;-75
2021/12/15 02:54:56;;;;;;;43.47;31.57;;;7.60;1.00;9.20;101918.00;;;;4986497;28;20478;-75
2021/12/15 02:57:25;;;;;;;40.70;30.53;;;7.60;1.00;9.20;101913.00;;;;4988655;28;20463;-75
2021/12/15 03:00:01;;;;;;;41.07;31.80;;;7.60;1.00;9.10;101924.00;;;;4988999;28;20455;-75
2021/12/15 03:03:06;;;;;;;39.33;32.00;;;7.60;1.00;9.30;101929.00;;;;4991907;28;21046;-76
2021/12/15 03:05:40;;;;;;;42.70;31.60;;;7.60;1.00;9.30;101934.00;;;;5009635;28;21285;-75
2021/12/15 03:08:14;;;;;;;38.30;29.90;;;7.60;1.00;9.30;101900.00;;;;5005386;28;20549;-75
2021/12/15 03:16:19;;;;;;;41.47;29.93;;;7.60;1.00;9.30;101910.00;;;;4990375;28;20548;-76
2021/12/15 03:18:47;;;;;;;39.80;30.47;;;7.60;1.00;9.20;101928.00;;;;4989741;28;20487;-76
2021/12/15 03:21:23;;;;;;;45.13;33.73;;;7.60;1.00;9.20;101905.00;;;;4990345;28;20550;-76
2021/12/15 03:24:00;;;;;;;42.53;32.03;;;7.60;1.00;9.20;101924.00;;;;4990559;28;20466;-75
2021/12/15 03:26:36;;;;;;;39.50;30.57;;;7.60;1.00;9.20;101916.00;;;;4990488;28;20841;-75
2021/12/15 03:34:48;;;;;;;42.57;30.93;;;7.60;1.00;9.20;101916.00;;;;4982293;28;20519;-75
2021/12/15 03:37:23;;;;;;;38.60;30.27;;;7.60;1.00;9.20;101920.00;;;;4991622;28;20470;-75
2021/12/15 03:39:58;;;;;;;35.73;30.33;;;7.60;1.00;9.20;101930.00;;;;4990230;28;20557;-75
2021/12/15 03:42:32;;;;;;;39.70;30.90;;;7.60;1.00;9.20;101921.00;;;;4983085;28;20478;-75
2021/12/15 03:45:05;;;;;;;37.40;30.23;;;7.50;1.00;9.10;101925.00;;;;4988663;28;20488;-75
2021/12/15 03:47:38;;;;;;;35.93;29.67;;;7.50;1.00;9.20;101920.00;;;;4994832;28;20473;-76
2021/12/15 03:50:12;;;;;;;37.67;30.17;;;7.50;1.00;9.10;101922.00;;;;4992350;28;20542;-76
2021/12/15 03:52:41;;;;;;;37.83;30.80;;;7.50;1.00;9.20;101934.00;;;;4994509;28;20455;-76
2021/12/15 03:55:13;;;;;;;37.77;30.50;;;7.50;1.00;9.20;101917.00;;;;4993341;28;20479;-76
2021/12/15 03:57:41;;;;;;;38.20;29.40;;;7.60;1.00;9.20;101923.00;;;;4993187;28;20943;-75
2021/12/15 04:00:13;;;;;;;39.40;29.50;;;7.50;1.00;9.20;101928.00;;;;4992880;28;20460;-75
2021/12/15 04:02:44;;;;;;;37.00;30.23;;;7.60;1.00;9.20;101918.00;;;;4980187;28;20460;-76
2021/12/15 04:05:16;;;;;;;40.57;29.17;;;7.60;1.00;9.20;101917.00;;;;4994354;28;20560;-75
2021/12/15 04:07:45;;;;;;;43.40;30.90;;;7.60;1.00;9.20;101918.00;;;;4995932;28;20454;-74
2021/12/15 04:10:19;;;;;;;34.90;29.17;;;7.60;1.00;9.20;101903.00;;;;4978173;28;20455;-75
2021/12/15 04:12:47;;;;;;;35.37;28.90;;;7.60;1.00;9.30;101924.00;;;;4994238;28;20881;-74
2021/12/15 04:15:28;;;;;;;34.20;27.37;;;7.60;1.00;9.20;101917.00;;;;4978165;28;20477;-76
2021/12/15 04:18:00;;;;;;;33.63;29.00;;;7.60;1.00;9.20;101918.00;;;;4990692;28;20450;-75
2021/12/15 04:20:35;;;;;;;33.97;28.13;;;7.60;1.00;9.20;101916.00;;;;4973226;28;20466;-75
2021/12/15 04:23:05;;;;;;;34.80;28.30;;;7.50;1.00;9.10;101921.00;;;;4981325;28;20458;-75
2021/12/15 04:25:39;;;;;;;34.57;28.57;;;7.50;1.00;9.10;101917.00;;;;4989481;28;20497;-75
2021/12/15 04:28:12;;;;;;;31.17;27.77;;;7.50;1.00;9.10;101931.00;;;;4978998;28;21015;-75
2021/12/15 04:30:45;;;;;;;34.97;27.93;;;7.50;1.00;9.10;101932.00;;;;4974452;28;21005;-75
2021/12/15 04:33:19;;;;;;;34.90;28.67;;;7.50;1.00;9.10;101936.00;;;;4995765;28;20454;-75
2021/12/15 04:35:49;;;;;;;33.33;27.70;;;7.50;1.00;9.20;101944.00;;;;4994030;28;20478;-75
2021/12/15 04:38:17;;;;;;;33.33;27.37;;;7.50;1.00;9.10;101940.00;;;;4993783;28;20463;-76
2021/12/15 04:40:47;;;;;;;32.83;28.13;;;7.50;1.00;9.10;101939.00;;;;4996271;28;20455;-75
2021/12/15 04:43:16;;;;;;;33.10;26.00;;;7.50;1.00;9.10;101916.00;;;;4993345;28;20447;-75
2021/12/15 04:45:44;;;;;;;31.07;26.40;;;7.50;1.00;9.10;101941.00;;;;4992609;28;20485;-75
2021/12/15 04:48:14;;;;;;;30.77;26.53;;;7.50;1.00;9.10;101904.00;;;;4990237;28;20462;-75
2021/12/15 04:50:43;;;;;;;33.63;28.10;;;7.50;1.00;9.00;101945.00;;;;4996145;28;20458;-76
2021/12/15 04:53:12;;;;;;;29.47;25.43;;;7.50;1.00;9.00;101948.00;;;;4993404;28;20520;-76
2021/12/15 04:55:41;;;;;;;31.63;28.20;;;7.50;1.00;9.10;101937.00;;;;4991369;28;20474;-75
2021/12/15 04:58:14;;;;;;;35.93;27.57;;;7.50;1.00;9.10;101936.00;;;;4994404;28;20463;-76
2021/12/15 05:00:48;;;;;;;33.63;27.53;;;7.50;1.00;9.10;101931.00;;;;4991360;28;20466;-76
2021/12/15 05:03:17;;;;;;;32.13;26.40;;;7.50;1.00;9.10;101928.00;;;;4993057;28;20562;-75
2021/12/15 05:05:45;;;;;;;32.43;27.17;;;7.50;1.00;9.10;101948.00;;;;4974524;28;20475;-76
2021/12/15 05:08:13;;;;;;;29.93;24.63;;;7.50;1.00;9.10;101955.00;;;;4993426;28;20473;-76
2021/12/15 05:10:42;;;;;;;29.03;25.43;;;7.60;1.00;9.10;101951.00;;;;4999135;28;20459;-75
2021/12/15 05:13:12;;;;;;;31.17;26.00;;;7.60;1.00;9.10;101951.00;;;;4976970;28;20462;-76
2021/12/15 05:15:43;;;;;;;31.67;26.70;;;7.60;1.00;9.00;101958.00;;;;4994631;28;20610;-76
2021/12/15 05:18:11;;;;;;;30.40;26.23;;;7.60;1.00;9.10;101960.00;;;;5013131;28;20450;-76
2021/12/15 05:20:46;;;;;;;31.27;25.67;;;7.60;1.00;9.10;101956.00;;;;5013188;28;20451;-76
2021/12/15 05:23:16;;;;;;;30.07;26.33;;;7.60;1.00;9.00;101963.00;;;;5002567;28;20434;-76
2021/12/15 05:25:46;;;;;;;33.77;27.50;;;7.50;1.00;9.00;101968.00;;;;4985031;28;20529;-75
2021/12/15 05:28:16;;;;;;;31.30;26.67;;;7.50;1.00;9.00;101952.00;;;;4975531;28;20534;-76
2021/12/15 05:30:44;;;;;;;34.80;26.30;;;7.60;1.00;9.00;101966.00;;;;4974006;28;20447;-76
2021/12/15 05:33:13;;;;;;;32.30;26.40;;;7.50;1.00;9.00;101978.00;;;;4992485;28;20813;-76
2021/12/15 05:35:41;;;;;;;34.33;28.43;;;7.50;1.00;9.00;101967.00;;;;4993548;28;20481;-76
2021/12/15 05:38:10;;;;;;;30.50;24.60;;;7.50;1.00;9.00;101979.00;;;;4991913;28;20455;-75
2021/12/15 05:40:38;;;;;;;32.63;27.10;;;7.50;1.00;9.00;101937.00;;;;4993179;28;20494;-76
2021/12/15 05:43:08;;;;;;;30.60;27.20;;;7.50;1.00;9.00;101969.00;;;;4992646;28;20451;-75
2021/12/15 05:45:40;;;;;;;30.73;26.87;;;7.50;1.00;9.10;101977.00;;;;4985757;28;20487;-75
2021/12/15 05:48:13;;;;;;;30.97;27.53;;;7.50;1.00;9.10;101967.00;;;;4988741;28;20453;-75
2021/12/15 05:50:44;;;;;;;34.47;27.97;;;7.60;1.00;9.10;101975.00;;;;4991771;28;20450;-76
2021/12/15 05:53:13;;;;;;;30.57;26.57;;;7.60;1.00;9.00;101980.00;;;;4989388;28;20454;-75
2021/12/15 05:55:44;;;;;;;31.63;25.93;;;7.60;1.00;9.10;101979.00;;;;4988659;28;20501;-76
2021/12/15 05:58:12;;;;;;;31.90;27.73;;;7.60;1.00;9.10;101977.00;;;;4988833;28;20454;-76
2021/12/15 06:00:45;;;;;;;35.30;27.43;;;7.60;1.00;9.10;101987.00;;;;4972501;28;20518;-76
2021/12/15 06:03:14;;;;;;;32.40;26.60;;;7.60;1.00;9.10;101985.00;;;;4975000;28;20466;-76
2021/12/15 06:05:43;;;;;;;31.47;27.93;;;7.50;1.00;9.20;102006.00;;;;4989372;28;20482;-76
2021/12/15 06:08:12;;;;;;;35.10;27.77;;;7.60;1.00;9.20;101997.00;;;;4989009;28;20463;-76
2021/12/15 06:10:41;;;;;;;32.87;26.93;;;7.60;1.00;9.20;101993.00;;;;4974562;28;20454;-76
2021/12/15 06:13:12;;;;;;;32.20;27.00;;;7.60;1.00;9.30;102001.00;;;;4986150;28;20454;-76
2021/12/15 06:15:45;;;;;;;30.10;25.77;;;7.60;1.00;9.30;101987.00;;;;4990562;28;20478;-75
2021/12/15 06:18:18;;;;;;;31.63;27.30;;;7.60;1.00;9.40;102001.00;;;;4973143;28;20447;-75
2021/12/15 06:20:49;;;;;;;32.60;26.17;;;7.70;1.00;9.40;102011.00;;;;4989417;28;20995;-75
2021/12/15 06:23:20;;;;;;;32.57;26.27;;;7.70;1.00;9.50;101996.00;;;;4987531;28;20459;-76
2021/12/15 06:25:53;;;;;;;31.30;28.03;;;7.70;1.00;9.40;102000.00;;;;4991217;28;20907;-76
2021/12/15 06:28:23;;;;;;;30.30;25.23;;;7.70;1.00;9.30;102014.00;;;;4988870;28;20561;-76
2021/12/15 06:30:53;;;;;;;33.93;27.33;;;7.70;1.00;9.30;102010.00;;;;4985163;28;20463;-75
2021/12/15 06:33:22;;;;;;;32.57;27.30;;;7.70;1.00;9.30;102012.00;;;;4987803;28;20513;-76
2021/12/15 06:35:54;;;;;;;33.10;27.57;;;7.70;1.00;9.40;102029.00;;;;4988303;28;20478;-77
2021/12/15 06:38:24;;;;;;;35.90;27.77;;;7.70;1.00;9.30;102022.00;;;;4967077;28;20463;-77
2021/12/15 06:40:53;;;;;;;33.40;28.27;;;7.80;1.00;9.40;102018.00;;;;4993171;28;20461;-76
2021/12/15 06:43:22;;;;;;;33.37;26.67;;;7.80;1.00;9.50;102011.00;;;;4992204;28;20451;-76
2021/12/15 06:46:03;;;;;;;30.50;26.47;;;7.70;1.00;9.50;102020.00;;;;4988527;28;20486;-76
2021/12/15 06:59:36;;;;;;;27.93;23.50;;;7.70;1.00;9.40;101997.00;;;;4992100;28;20962;-77
2021/12/15 07:02:06;;;;;;;28.30;23.77;;;7.80;1.00;9.30;102043.00;;;;4986296;28;20455;-77
2021/12/15 07:04:35;;;;;;;28.97;24.67;;;7.70;1.00;9.30;102062.00;;;;4987587;28;20998;-77
2021/12/15 07:07:04;;;;;;;30.57;24.00;;;7.70;1.00;9.30;102050.00;;;;4975427;28;20834;-77
2021/12/15 07:09:35;;;;;;;26.70;23.17;;;7.70;1.00;9.20;102066.00;;;;4993750;28;20978;-77
2021/12/15 07:12:06;;;;;;;28.20;23.90;;;7.70;1.00;9.20;102072.00;;;;4989253;28;20477;-76
2021/12/15 07:14:35;;;;;;;31.10;23.23;;;7.70;1.00;9.20;102058.00;;;;4985854;28;20471;-76
2021/12/15 07:17:10;;;;;;;27.63;23.67;;;7.70;1.00;9.20;102072.00;;;;4980129;28;20471;-77
2021/12/15 07:20:03;;;;;;;29.60;24.03;;;7.70;1.00;9.20;102072.00;;;;4986904;28;20443;-77
2021/12/15 07:22:43;;;;;;;27.63;24.57;;;7.70;1.00;9.30;102061.00;;;;4984538;28;20811;-77
2021/12/15 07:25:14;;;;;;;28.33;24.30;;;7.70;1.00;9.20;102066.00;;;;4977079;28;20489;-77
2021/12/15 07:27:43;;;;;;;27.90;23.87;;;7.70;1.00;9.20;102070.00;;;;4989441;28;20451;-76
2021/12/15 07:30:13;;;;;;;27.43;23.40;;;7.70;1.00;9.20;102080.00;;;;4977259;28;20521;-75
2021/12/15 07:32:43;;;;;;;25.90;22.00;;;7.70;1.00;9.30;102056.00;;;;4992310;28;20982;-76
2021/12/15 07:35:14;;;;;;;26.20;23.47;;;7.70;1.00;9.30;102085.00;;;;4989255;28;20545;-76
2021/12/15 07:37:42;;;;;;;27.13;24.10;;;7.80;1.00;9.40;102080.00;;;;4991809;28;20481;-76
2021/12/15 07:40:19;;;;;;;28.40;23.93;;;7.80;1.00;9.50;102093.00;;;;4971560;28;20487;-76
2021/12/15 07:43:03;;;;;;;29.70;25.70;;;7.80;1.00;9.50;102088.00;;;;4988803;28;20839;-76
2021/12/15 07:45:33;;;;;;;31.67;25.90;;;7.90;1.00;9.40;102091.00;;;;4988434;28;20478;-76
2021/12/15 07:48:05;;;;;;;29.37;25.73;;;7.80;1.00;9.50;102102.00;;;;4987841;28;20459;-76
2021/12/15 07:50:35;;;;;;;31.17;26.00;;;7.80;1.00;9.50;102088.00;;;;4989666;28;20462;-76
2021/12/15 07:53:05;;;;;;;31.43;26.47;;;7.90;1.00;9.50;102099.00;;;;4982584;28;20451;-76
2021/12/15 07:55:57;;;;;;;32.60;27.00;;;7.90;1.00;9.60;102102.00;;;;4986499;28;20474;-76
2021/12/15 07:58:29;;;;;;;31.43;27.00;;;7.90;1.00;9.40;102102.00;;;;4976088;28;20529;-75
2021/12/15 08:01:01;;;;;;;35.33;27.40;;;7.90;1.00;9.50;102098.00;;;;4984528;28;20850;-76
2021/12/15 08:03:34;;;;;;;31.83;26.00;;;8.00;1.00;9.60;102109.00;;;;4989987;28;20447;-76
2021/12/15 08:06:03;;;;;;;33.83;27.67;;;7.90;1.00;9.60;102065.00;;;;4994591;28;20470;-76
2021/12/15 08:08:31;;;;;;;33.13;27.80;;;8.00;1.00;9.60;102091.00;;;;5017530;28;20433;-74
2021/12/15 08:11:00;;;;;;;34.17;27.40;;;7.90;1.00;9.60;102096.00;;;;4999834;28;20497;-76
2021/12/15 08:13:31;;;;;;;34.60;27.47;;;8.00;1.00;9.60;102099.00;;;;4999843;28;20477;-76
2021/12/15 08:15:59;;;;;;;34.50;28.00;;;8.00;1.00;9.70;102088.00;;;;4996389;28;20479;-75
2021/12/15 08:18:28;;;;;;;35.70;28.30;;;8.00;1.00;9.60;102093.00;;;;4993213;28;20478;-76
2021/12/15 08:21:00;;;;;;;36.90;28.87;;;8.00;1.00;9.60;102095.00;;;;4998842;28;20493;-76
2021/12/15 08:23:29;;;;;;;35.90;29.20;;;8.10;1.00;9.50;102094.00;;;;4995185;28;20465;-76
2021/12/15 08:25:57;;;;;;;36.97;28.30;;;8.00;1.00;9.60;102091.00;;;;4999287;28;20481;-75
2021/12/15 08:28:26;;;;;;;35.77;28.67;;;8.10;1.00;9.60;102093.00;;;;4990817;28;20473;-75
2021/12/15 08:30:55;;;;;;;37.70;29.13;;;8.10;1.00;9.70;102096.00;;;;4991101;28;20494;-76
2021/12/15 08:33:24;;;;;;;35.33;29.00;;;8.10;1.00;9.70;102118.00;;;;4994839;28;20550;-76
2021/12/15 08:35:58;;;;;;;37.77;30.33;;;8.10;1.00;9.80;102088.00;;;;4988548;28;20480;-76
2021/12/15 08:38:29;;;;;;;37.23;29.90;;;8.20;1.00;9.80;102069.00;;;;4976807;28;20572;-76
2021/12/15 08:40:58;;;;;;;36.60;31.27;;;8.20;1.00;9.70;102053.00;;;;4997780;28;20465;-76
2021/12/15 08:43:27;;;;;;;36.00;28.10;;;8.20;1.00;9.90;102111.00;;;;4992843;28;20481;-76
2021/12/15 08:46:04;;;;;;;38.30;29.97;;;8.20;1.00;9.80;102115.00;;;;4984973;28;20474;-76
2021/12/15 08:48:35;;;;;;;35.57;28.73;;;8.30;1.00;9.90;102114.00;;;;4969630;28;20514;-76
2021/12/15 08:51:07;;;;;;;35.40;29.20;;;8.30;1.00;10.00;102113.00;;;;4991270;28;20484;-75
2021/12/15 08:53:41;;;;;;;38.53;30.50;;;8.30;1.00;10.00;102119.00;;;;4989972;28;20463;-75
2021/12/15 08:56:10;;;;;;;39.13;30.37;;;8.30;1.00;10.00;102118.00;;;;4990541;28;20486;-75
2021/12/15 08:58:40;;;;;;;37.97;30.57;;;8.30;1.00;10.00;102130.00;;;;4991826;28;20475;-75
2021/12/15 09:01:09;;;;;;;36.17;29.80;;;8.30;1.00;9.90;102122.00;;;;4991494;28;20454;-76
2021/12/15 09:03:41;;;;;;;36.73;29.37;;;8.30;1.00;9.70;102113.00;;;;4991987;28;20558;-76
2021/12/15 09:06:11;;;;;;;35.13;27.20;;;8.30;1.00;9.70;102081.00;;;;4975816;28;20513;-75
2021/12/15 09:08:42;;;;;;;38.60;28.57;;;8.30;1.00;9.60;102131.00;;;;4990767;28;20576;-76
2021/12/15 09:11:15;;;;;;;37.70;29.40;;;8.30;1.00;9.70;102121.00;;;;4996100;28;20462;-75
2021/12/15 09:13:47;;;;;;;36.77;29.80;;;8.30;1.00;9.80;102129.00;;;;4998005;28;20443;-76
2021/12/15 09:16:16;;;;;;;34.33;27.10;;;8.30;1.00;9.80;102133.00;;;;5005667;28;20482;-75
2021/12/15 09:18:46;;;;;;;35.00;28.47;;;8.30;1.00;9.90;102122.00;;;;4993362;28;20994;-76
2021/12/15 09:21:19;;;;;;;37.80;29.80;;;8.40;1.00;10.00;102114.00;;;;4992759;28;20530;-77
2021/12/15 09:23:48;;;;;;;36.50;28.43;;;8.40;1.00;10.00;102141.00;;;;4988644;28;20554;-76
2021/12/15 09:26:17;;;;;;;38.37;29.23;;;8.50;1.00;10.00;102128.00;;;;4971536;28;20511;-76
2021/12/15 09:28:46;;;;;;;35.00;28.10;;;8.50;1.00;10.20;102131.00;;;;4991412;28;20973;-76
2021/12/15 09:31:16;;;;;;;31.47;27.33;;;8.60;1.00;10.20;102133.00;;;;4991168;28;20481;-75
2021/12/15 09:33:47;;;;;;;36.93;28.63;;;8.60;1.00;10.30;102136.00;;;;4988771;28;20826;-76
2021/12/15 09:36:20;;;;;;;33.50;27.10;;;8.70;1.00;10.40;102136.00;;;;4983696;28;20558;-77
2021/12/15 09:38:54;;;;;;;34.40;29.23;;;8.80;1.00;10.40;102136.00;;;;4993797;28;20995;-77
2021/12/15 09:41:24;;;;;;;36.83;28.77;;;8.80;1.00;10.50;102128.00;;;;4987326;28;20948;-77
2021/12/15 09:43:56;;;;;;;36.07;29.33;;;8.80;1.00;10.60;102138.00;;;;4992938;28;21045;-76
2021/12/15 09:46:36;;;;;;;40.43;31.03;;;8.90;1.00;10.70;102134.00;;;;4990349;28;20455;-76
2021/12/15 10:01:51;;;;;;;39.17;31.63;;;9.00;1.00;10.60;102113.00;;;;4988216;28;20461;-77
2021/12/15 10:03:21;;;;;;;37.03;30.17;;;9.10;1.00;10.80;102136.00;;;;4981955;28;20894;-76
2021/12/15 10:05:57;;;;;;;36.57;29.70;;;9.20;1.00;10.80;102122.00;;;;4992315;28;20485;-76
2021/12/15 10:11:40;;;;;;;33.53;29.07;;;9.20;1.00;10.60;102134.00;;;;4992197;28;20465;-76
2021/12/15 10:19:51;;;;;;;36.93;29.97;;;9.20;1.00;10.80;102105.00;;;;4992434;28;20510;-75
2021/12/15 10:22:34;;;;;;;36.53;30.27;;;9.30;1.00;10.90;102119.00;;;;4989843;28;20458;-76
2021/12/15 10:25:12;;;;;;;38.67;30.87;;;9.30;1.00;11.00;102101.00;;;;4990278;28;20517;-76
2021/12/15 10:27:48;;;;;;;39.80;30.70;;;9.40;1.00;11.00;102110.00;;;;4992646;28;20443;-76
2021/12/15 10:30:26;;;;;;;36.50;30.63;;;9.40;1.00;11.20;102111.00;;;;4988030;28;20545;-77
2021/12/15 10:32:59;;;;;;;38.03;29.50;;;9.50;1.00;11.20;102113.00;;;;4989924;28;20459;-77
2021/12/15 10:35:31;;;;;;;32.47;28.20;;;9.60;1.00;11.10;102127.00;;;;4987081;28;20483;-76
2021/12/15 10:38:20;;;;;;;34.93;29.70;;;9.60;1.00;11.10;102120.00;;;;4989109;28;20494;-76
2021/12/15 10:40:57;;;;;;;29.00;25.90;;;9.60;1.00;11.10;102110.00;;;;4979094;28;20535;-77
2021/12/15 10:43:33;;;;;;;31.90;27.63;;;9.60;1.00;11.00;102107.00;;;;4994997;28;20845;-76
2021/12/15 10:46:07;;;;;;;32.37;27.10;;;9.60;1.00;11.20;102117.00;;;;4992165;28;20490;-77
2021/12/15 10:48:47;;;;;;;30.97;26.47;;;9.60;1.00;11.20;102113.00;;;;4991427;28;20590;-76
2021/12/15 10:51:36;;;;;;;30.33;26.20;;;9.70;1.00;11.30;102105.00;;;;4987947;28;20459;-76
2021/12/15 10:54:09;;;;;;;31.37;25.30;;;9.70;1.00;11.40;102074.00;;;;4987104;28;20454;-77
2021/12/15 10:56:44;;;;;;;25.63;22.53;;;9.70;1.00;11.10;102103.00;;;;4987444;28;20461;-77
2021/12/15 10:59:15;;;;;;;27.87;24.10;;;9.80;1.00;11.10;102085.00;;;;4979294;28;20477;-75
2021/12/15 11:01:58;;;;;;;27.03;22.00;;;9.70;1.00;11.10;102103.00;;;;4985530;28;20451;-76
2021/12/15 11:04:38;;;;;;;25.43;22.70;;;9.70;1.00;11.10;102098.00;;;;4985755;28;20480;-77
2021/12/15 11:07:22;;;;;;;25.70;22.90;;;9.70;1.00;11.20;102093.00;;;;4990075;28;20450;-77
2021/12/15 11:09:57;;;;;;;26.13;22.83;;;9.80;1.00;11.20;102054.00;;;;4967335;28;20467;-75
2021/12/15 11:12:32;;;;;;;32.47;23.43;;;9.80;1.00;11.30;102102.00;;;;4987206;28;20454;-76
2021/12/15 11:15:05;;;;;;;28.93;23.97;;;9.90;1.00;11.40;102101.00;;;;4976971;28;20489;-76
2021/12/15 11:17:37;;;;;;;24.57;20.70;;;9.90;1.00;11.30;102101.00;;;;4990711;28;20467;-76
2021/12/15 11:20:13;;;;;;;25.17;22.40;;;9.90;1.00;11.30;102099.00;;;;4986308;28;20478;-75
2021/12/15 11:22:58;;;;;;;25.70;21.03;;;9.80;1.00;11.20;102092.00;;;;4974331;28;20477;-76
2021/12/15 11:25:35;;;;;;;22.10;18.97;;;9.80;1.00;11.10;102090.00;;;;4987418;28;20470;-76
2021/12/15 11:28:14;;;;;;;24.77;21.20;;;9.80;1.00;11.10;102096.00;;;;4980011;28;20454;-77
2021/12/15 11:30:48;;;;;;;22.77;19.83;;;9.80;1.00;11.20;102103.00;;;;4983705;28;21054;-77
2021/12/15 11:33:21;;;;;;;23.40;20.27;;;9.80;1.00;11.30;102093.00;;;;4986101;28;20525;-77
2021/12/15 11:35:56;;;;;;;20.30;18.30;;;9.80;1.00;11.30;102091.00;;;;4977310;28;20487;-77
2021/12/15 11:38:32;;;;;;;25.93;20.90;;;9.90;1.00;11.30;102082.00;;;;4962239;28;20797;-77
2021/12/15 11:41:12;;;;;;;20.40;18.13;;;9.90;1.00;11.20;102076.00;;;;4980893;28;20531;-76
2021/12/15 11:43:48;;;;;;;20.63;17.93;;;9.90;1.00;11.10;102067.00;;;;4975384;28;20968;-77
2021/12/15 11:46:25;;;;;;;21.53;19.33;;;9.80;1.00;11.10;102059.00;;;;4983445;28;20516;-76
2021/12/15 11:48:57;;;;;;;23.27;19.93;;;9.80;1.00;11.20;102063.00;;;;4985288;28;20657;-76
2021/12/15 11:51:40;;;;;;;22.10;19.80;;;9.80;1.00;11.40;102071.00;;;;4985415;28;20461;-77
2021/12/15 11:54:19;;;;;;;23.67;18.67;;;10.00;1.00;11.70;102049.00;;;;4981661;28;20471;-76
2021/12/15 11:56:49;;;;;;;22.07;19.57;;;10.10;1.00;11.70;102075.00;;;;4990092;28;20459;-76
2021/12/15 11:59:26;;;;;;;22.07;19.47;;;10.20;1.00;11.70;102082.00;;;;5000385;28;20475;-76
2021/12/15 12:02:07;;;;;;;24.53;19.63;;;10.30;1.00;11.70;102043.00;;;;4990043;28;20543;-76
2021/12/15 12:04:41;;;;;;;25.93;20.70;;;10.20;1.00;11.70;102064.00;;;;4995025;28;20482;-76
2021/12/15 12:07:25;;;;;;;21.47;18.63;;;10.20;1.00;11.60;102069.00;;;;5016008;28;20469;-76
2021/12/15 12:09:58;;;;;;;21.90;18.17;;;10.30;1.00;11.70;102068.00;;;;5002811;28;20473;-77
2021/12/15 12:12:35;;;;;;;20.90;18.20;;;10.30;1.00;11.90;102041.00;;;;4987106;28;20462;-76
2021/12/15 12:15:09;;;;;;;22.50;18.77;;;10.40;1.00;11.90;102056.00;;;;4980030;28;20486;-77
2021/12/15 12:17:39;;;;;;;21.27;17.70;;;10.50;1.00;12.10;102028.00;;;;4994918;28;20486;-77
2021/12/15 12:20:13;;;;;;;21.80;17.33;;;10.80;1.00;11.90;102058.00;;;;5012583;28;20496;-77
2021/12/15 12:22:43;;;;;;;21.77;18.50;;;10.90;1.00;12.10;102053.00;;;;4996805;28;20462;-77
2021/12/15 12:25:16;;;;;;;19.90;17.77;;;10.80;1.00;12.00;102059.00;;;;4983904;28;20829;-75
2021/12/15 12:27:46;;;;;;;18.60;16.60;;;10.90;1.00;12.00;102044.00;;;;4979578;28;20845;-74
2021/12/15 12:30:23;;;;;;;19.53;16.40;;;10.90;1.00;12.00;102053.00;;;;4994158;28;20459;-76
2021/12/15 12:32:53;;;;;;;21.20;17.70;;;11.00;1.00;12.20;102065.00;;;;5016700;28;20481;-76
2021/12/15 12:35:26;;;;;;;22.67;17.07;;;11.00;1.00;12.20;102058.00;;;;5016704;28;20468;-77
2021/12/15 12:37:58;;;;;;;19.37;16.90;;;11.00;1.00;12.40;102054.00;;;;5011487;28;20463;-76
2021/12/15 12:40:34;;;;;;;19.50;15.13;;;11.00;1.00;12.20;102061.00;;;;5013100;28;20510;-76
2021/12/15 12:43:22;;;;;;;15.97;13.83;;;11.00;1.00;12.20;102060.00;;;;4999133;28;20555;-76
2021/12/15 12:46:04;;;;;;;16.90;15.10;;;11.10;1.00;12.30;102049.00;;;;4993275;28;20474;-76
2021/12/15 13:00:06;;;;;;;14.50;13.00;;;10.50;1.00;12.00;102029.00;;;;5016120;28;20466;-75
2021/12/15 13:02:45;;;;;;;14.83;13.13;;;10.50;1.00;11.90;102061.00;;;;5001574;28;20467;-76
2021/12/15 13:05:41;;;;;;;17.03;13.60;;;10.50;1.00;11.90;102039.00;;;;5017538;28;20471;-77
2021/12/15 13:08:13;;;;;;;19.40;16.17;;;10.50;1.00;12.10;102047.00;;;;5000654;28;20431;-76
2021/12/15 13:11:04;;;;;;;16.80;15.00;;;10.60;1.00;12.10;102035.00;;;;4998954;28;20474;-76
2021/12/15 13:13:37;;;;;;;17.20;14.40;;;10.60;1.00;11.90;102051.00;;;;5015332;28;20455;-77
2021/12/15 13:16:09;;;;;;;14.30;12.60;;;10.60;1.00;11.60;102044.00;;;;5001788;28;20467;-77
2021/12/15 13:18:53;;;;;;;15.30;13.37;;;10.50;1.00;11.70;102042.00;;;;4997240;28;20497;-77
2021/12/15 13:21:43;;;;;;;16.10;13.20;;;10.30;1.00;11.70;102052.00;;;;4995018;28;20614;-76
2021/12/15 13:30:39;;;;;;;12.07;10.05;;;10.20;1.00;11.40;102013.00;;;;4956693;28;1086078;-76
2021/12/15 13:33:16;;;;;;;11.67;9.70;;;10.10;1.00;11.40;102047.00;;;;4998075;28;20183;-76